Terminal Aerodrome Forecast
Issued by NWS

Home | Current Version | Previous Version | Text Only | Print | Product List | Glossary On
Versions: 1 2 3 4 5 6 7 8 9 10 11 12 13 14 15 16 17 18 19
081
FTUS43 KGRB 172332
TAFMTW
TAF
KMTW 172332Z 1800/1824 23009KT P6SM SCT017 BKN040
      TEMPO 1800/1804 BKN017
     FM180400 28009KT P6SM FEW040
     FM180800 24004KT P6SM SCT110
     FM181600 17012G19KT P6SM BKN110
     FM181800 17017G27KT P6SM BKN120 WS020/20050KT=

USA.gov is the U.S. government's official web portal to all federal, state and local government web resources and services.